createdAt,value
2019-03-28T00:03:30.759Z,47.17
2019-03-28T00:08:32.475Z,44.70
2019-03-28T00:13:34.502Z,45.87
2019-03-28T00:18:36.217Z,41.23
2019-03-28T00:23:39.930Z,39.07
2019-03-28T00:28:41.737Z,40.07
2019-03-28T00:33:44.371Z,44.20
2019-03-28T00:38:46.057Z,41.03
2019-03-28T00:43:47.768Z,44.60
2019-03-28T00:48:50.572Z,38.73
2019-03-28T00:53:52.179Z,41.10
2019-03-28T00:58:53.902Z,40.67
2019-03-28T01:03:55.623Z,40.80
2019-03-28T01:08:57.237Z,39.43
2019-03-28T01:13:59.014Z,38.07
2019-03-28T01:19:00.739Z,37.87
2019-03-28T01:24:02.538Z,36.17
2019-03-28T01:29:04.242Z,39.57
2019-03-28T01:34:06.363Z,37.70
2019-03-28T01:39:08.017Z,42.97
2019-03-28T01:44:10.400Z,35.13
2019-03-28T01:49:12.015Z,39.67
2019-03-28T01:54:13.626Z,40.30
2019-03-28T01:59:15.334Z,40.00
2019-03-28T02:04:16.980Z,35.87
2019-03-28T02:09:18.840Z,38.03
2019-03-28T02:14:20.449Z,36.33
2019-03-28T02:19:22.133Z,40.57
2019-03-28T02:24:23.741Z,37.93
2019-03-28T02:29:25.389Z,38.10
2019-03-28T02:34:26.994Z,33.83
2019-03-28T02:39:28.720Z,34.23
2019-03-28T02:44:30.454Z,33.63
2019-03-28T02:49:32.102Z,31.67
2019-03-28T02:54:33.867Z,30.03
2019-03-28T02:59:35.467Z,27.80
2019-03-28T03:04:37.207Z,30.97
2019-03-28T03:09:39.102Z,30.20
2019-03-28T03:14:40.705Z,29.27
2019-03-28T03:19:42.442Z,28.77
2019-03-28T03:24:44.042Z,25.67
2019-03-28T03:29:45.645Z,27.53
2019-03-28T03:34:47.302Z,26.77
2019-03-28T03:39:48.916Z,26.07
2019-03-28T03:44:50.898Z,26.70
2019-03-28T03:49:52.549Z,28.80
2019-03-28T03:54:54.146Z,29.93
2019-03-28T03:59:55.821Z,27.07
2019-03-28T04:04:57.473Z,29.17
2019-03-28T04:09:59.179Z,29.47
2019-03-28T04:15:01.287Z,30.40
2019-03-28T04:20:05.625Z,30.97
2019-03-28T04:25:07.800Z,32.07
2019-03-28T04:30:09.910Z,31.93
2019-03-28T04:35:11.523Z,30.67
2019-03-28T04:40:13.332Z,30.60
2019-03-28T04:45:15.007Z,27.60
2019-03-28T04:50:16.705Z,25.80
2019-03-28T04:55:18.611Z,26.97
2019-03-28T05:00:20.935Z,33.67
2019-03-28T05:05:22.547Z,33.37
2019-03-28T05:10:24.150Z,29.83
2019-03-28T05:15:25.788Z,36.80
2019-03-28T05:20:27.397Z,36.63
2019-03-28T05:25:29.043Z,37.67
2019-03-28T05:30:30.787Z,33.80
2019-03-28T05:35:32.385Z,37.30
2019-03-28T05:40:33.983Z,32.20
2019-03-28T05:45:35.831Z,38.43
2019-03-28T05:50:37.499Z,40.03
2019-03-28T05:55:39.099Z,39.33
2019-03-28T06:00:40.751Z,36.20
2019-03-28T06:05:42.558Z,29.20
2019-03-28T06:10:44.279Z,34.10
2019-03-28T06:15:45.965Z,28.53
2019-03-28T06:20:47.770Z,28.00
2019-03-28T06:25:49.611Z,37.90
2019-03-28T06:30:51.503Z,35.43
2019-03-28T06:35:53.108Z,37.47
2019-03-28T06:40:54.720Z,37.60
2019-03-28T06:45:56.451Z,37.57
